createdAt,value
2018-09-11T00:05:09.616Z,7.80
2018-09-11T00:10:38.998Z,4.67
2018-09-11T00:16:08.394Z,4.50
2018-09-11T00:21:37.683Z,5.60
2018-09-11T00:27:08.171Z,4.05
2018-09-11T00:32:37.588Z,4.97
2018-09-11T00:38:08.195Z,4.40
2018-09-11T00:43:37.571Z,5.72
2018-09-11T00:49:06.851Z,3.52
2018-09-11T00:54:36.352Z,7.95
2018-09-11T01:00:07.688Z,3.75
2018-09-11T01:05:37.008Z,5.40
2018-09-11T01:11:06.416Z,5.20
2018-09-11T01:16:35.687Z,3.40
2018-09-11T01:22:04.969Z,6.40
2018-09-11T01:27:34.200Z,6.83
2018-09-11T01:33:03.476Z,5.10
2018-09-11T01:38:32.755Z,4.53
2018-09-11T01:44:02.013Z,7.37
2018-09-11T01:49:31.240Z,4.87
2018-09-11T01:55:00.452Z,4.42
2018-09-11T02:00:32.982Z,3.50
2018-09-11T02:06:02.206Z,4.22
2018-09-11T02:11:31.512Z,5.90
2018-09-11T02:17:00.675Z,4.47
2018-09-11T02:22:29.907Z,9.50
2018-09-11T02:27:59.113Z,5.47
2018-09-11T02:33:28.356Z,5.00
2018-09-11T02:39:04.249Z,4.28
2018-09-11T02:44:33.521Z,3.98
2018-09-11T02:50:02.741Z,3.62
2018-09-11T02:55:37.600Z,4.47
2018-09-11T03:01:06.872Z,3.58
2018-09-11T03:06:36.973Z,6.05
2018-09-11T03:12:07.443Z,3.67
2018-09-11T03:17:36.726Z,5.30
2018-09-11T03:23:06.036Z,4.50
2018-09-11T03:28:35.680Z,6.65
2018-09-11T03:34:06.007Z,4.22
2018-09-11T03:39:35.322Z,5.20
2018-09-11T03:45:04.959Z,5.37
2018-09-11T03:50:34.202Z,4.55
2018-09-11T03:56:03.551Z,8.18
2018-09-11T04:01:32.766Z,9.45
2018-09-11T04:07:02.032Z,5.97
2018-09-11T04:12:31.233Z,6.42
2018-09-11T04:18:00.548Z,4.80
2018-09-11T04:23:29.731Z,5.50
2018-09-11T04:28:59.036Z,4.50
2018-09-11T04:34:28.404Z,5.72
2018-09-11T04:39:57.760Z,5.92
2018-09-11T04:45:26.989Z,10.40
2018-09-11T04:50:56.460Z,6.05
2018-09-11T04:56:26.767Z,5.97
2018-09-11T05:01:56.059Z,7.50
2018-09-11T05:07:25.269Z,8.08
2018-09-11T05:12:54.528Z,5.78
2018-09-11T05:18:23.915Z,9.00
2018-09-11T05:23:53.120Z,6.15
2018-09-11T05:29:22.367Z,6.47
2018-09-11T05:34:51.570Z,6.05
2018-09-11T05:40:20.867Z,8.75
2018-09-11T05:45:50.125Z,6.72
2018-09-11T05:51:19.449Z,6.75
2018-09-11T05:56:50.781Z,8.60
2018-09-11T06:02:20.032Z,8.60
2018-09-11T06:07:49.311Z,5.35
2018-09-11T06:13:18.668Z,5.15
2018-09-11T06:18:47.988Z,4.20
2018-09-11T06:24:17.243Z,5.47
2018-09-11T06:29:46.482Z,4.83
2018-09-11T06:35:15.746Z,4.05
2018-09-11T06:40:45.158Z,4.15
2018-09-11T06:46:14.508Z,5.92
2018-09-11T06:51:43.905Z,7.12
2018-09-11T06:57:13.307Z,6.10
2018-09-11T07:02:42.851Z,7.67
2018-09-11T07:08:12.291Z,5.72
2018-09-11T07:13:41.754Z,5.62
2018-09-11T07:19:11.377Z,5.97
2018-09-11T07:24:42.150Z,6.05
2018-09-11T07:30:11.705Z,5.72
2018-09-11T07:35:40.995Z,5.90
2018-09-11T07:41:11.338Z,9.35
2018-09-11T07:46:40.887Z,11.05
2018-09-11T07:52:11.341Z,5.20
2018-09-11T07:57:40.872Z,6.72
2018-09-11T08:03:10.293Z,8.08
2018-09-11T08:08:39.788Z,4.87
2018-09-11T08:14:09.866Z,6.92
2018-09-11T08:19:39.620Z,6.17
2018-09-11T08:25:09.156Z,7.70
2018-09-11T08:30:38.884Z,11.03
2018-09-11T08:36:08.413Z,7.70
2018-09-11T08:41:37.959Z,5.42
2018-09-11T08:47:07.392Z,6.87
2018-09-11T08:52:37.618Z,8.33
2018-09-11T08:58:07.027Z,7.72
2018-09-11T09:03:36.294Z,10.53
2018-09-11T09:09:09.897Z,15.95
2018-09-11T09:14:39.280Z,5.95
2018-09-11T09:20:08.667Z,5.92
2018-09-11T09:25:38.117Z,6.72
2018-09-11T09:31:07.477Z,4.50
2018-09-11T09:36:36.934Z,5.37
2018-09-11T09:42:06.391Z,6.10
2018-09-11T09:47:35.729Z,5.45
2018-09-11T09:53:04.997Z,7.53
2018-09-11T09:58:34.235Z,9.70
2018-09-11T10:04:03.520Z,9.45
2018-09-11T10:09:32.721Z,9.25
2018-09-11T10:15:02.968Z,5.95
2018-09-11T10:20:32.177Z,5.50
2018-09-11T10:26:01.432Z,5.25
2018-09-11T10:31:30.645Z,7.75
2018-09-11T10:36:59.855Z,7.72
2018-09-11T10:42:29.036Z,4.42
2018-09-11T10:47:58.287Z,7.30
2018-09-11T10:53:27.487Z,4.97
2018-09-11T10:59:03.758Z,7.35
2018-09-11T11:04:32.907Z,5.40
2018-09-11T11:10:02.167Z,7.05
2018-09-11T11:15:31.801Z,6.60
2018-09-11T11:21:06.092Z,6.17
2018-09-11T11:26:35.353Z,5.17
2018-09-11T11:32:06.721Z,3.70
2018-09-11T11:37:36.048Z,5.28
2018-09-11T11:43:05.841Z,3.45
2018-09-11T11:48:35.104Z,6.08
2018-09-11T11:54:04.484Z,10.15
2018-09-11T11:59:33.757Z,4.33
2018-09-11T12:05:03.498Z,3.30
2018-09-11T12:10:33.021Z,4.53
2018-09-11T12:16:02.576Z,9.10
2018-09-11T12:21:32.859Z,5.97
2018-09-11T12:27:02.407Z,5.20
2018-09-11T12:32:33.804Z,4.30
2018-09-11T12:38:03.033Z,7.00
2018-09-11T12:43:32.279Z,6.15
2018-09-11T12:49:07.380Z,7.55
2018-09-11T12:54:36.715Z,6.10
2018-09-11T13:00:07.960Z,6.72
2018-09-11T13:05:38.713Z,3.90
2018-09-11T13:11:08.053Z,6.12
2018-09-11T13:16:37.459Z,11.63
2018-09-11T13:22:06.960Z,8.65
2018-09-11T13:27:36.981Z,6.25
2018-09-11T13:33:06.440Z,10.20
2018-09-11T13:38:36.905Z,5.70
2018-09-11T13:44:06.342Z,6.60
2018-09-11T13:49:35.551Z,4.00
2018-09-11T13:55:05.274Z,3.80
2018-09-11T14:00:34.538Z,5.33
2018-09-11T14:06:03.717Z,3.90
2018-09-11T14:11:32.948Z,4.60
2018-09-11T14:17:02.325Z,6.80
2018-09-11T14:22:31.571Z,2.80
2018-09-11T14:28:00.756Z,5.12
2018-09-11T14:33:30.032Z,6.33
2018-09-11T14:38:59.234Z,3.47
2018-09-11T14:44:28.509Z,4.95
2018-09-11T14:49:57.704Z,3.08
2018-09-11T14:55:37.325Z,3.92
2018-09-11T15:01:10.087Z,5.53
2018-09-11T15:06:40.048Z,4.45
2018-09-11T15:12:10.041Z,4.30
2018-09-11T15:17:39.513Z,4.47
2018-09-11T15:23:09.200Z,3.42
2018-09-11T15:28:38.789Z,5.62
2018-09-11T15:34:08.440Z,5.58
2018-09-11T15:39:38.480Z,7.90
2018-09-11T15:45:08.771Z,4.33
2018-09-11T15:50:39.352Z,4.20
2018-09-11T15:56:12.616Z,3.83
2018-09-11T16:01:42.315Z,12.58
2018-09-11T16:07:12.052Z,6.30
2018-09-11T16:12:41.818Z,6.87
2018-09-11T16:18:12.854Z,4.65
2018-09-11T16:23:43.316Z,7.67
2018-09-11T16:29:12.783Z,5.55
2018-09-11T16:34:42.589Z,7.42
2018-09-11T16:40:12.330Z,5.17
2018-09-11T16:45:42.032Z,6.40
2018-09-11T16:51:11.558Z,6.92
2018-09-11T16:56:41.171Z,7.83
2018-09-11T17:02:10.780Z,4.22
2018-09-11T17:07:40.253Z,5.15
2018-09-11T17:13:09.632Z,7.72
2018-09-11T17:18:39.158Z,20.80
2018-09-11T17:24:08.537Z,7.70
2018-09-11T17:29:38.280Z,8.48
2018-09-11T17:35:09.841Z,6.35
2018-09-11T17:40:39.832Z,8.75
2018-09-11T17:51:40.575Z,9.03
2018-09-11T17:57:09.870Z,11.83
2018-09-11T18:02:39.679Z,8.63
2018-09-11T18:08:09.277Z,9.63
2018-09-11T18:13:38.735Z,9.20
2018-09-11T18:19:08.320Z,7.17
2018-09-11T18:24:37.996Z,10.23
2018-09-11T18:30:07.705Z,11.73
2018-09-11T18:35:37.125Z,13.57
2018-09-11T18:41:06.871Z,12.90
2018-09-11T18:46:36.384Z,10.17
2018-09-11T18:52:05.664Z,9.93
2018-09-11T18:57:35.251Z,9.60
2018-09-11T19:03:05.628Z,7.70
2018-09-11T19:08:34.979Z,10.10
2018-09-11T19:14:04.211Z,10.40
2018-09-11T19:19:33.495Z,14.67
2018-09-11T19:25:02.807Z,9.40
2018-09-11T19:30:32.104Z,11.13
2018-09-11T19:36:01.419Z,15.03
2018-09-11T19:41:30.673Z,17.90
2018-09-11T19:46:59.936Z,13.00
2018-09-11T19:52:29.510Z,12.20
2018-09-11T19:57:58.873Z,8.53
2018-09-11T20:03:28.182Z,11.33
2018-09-11T20:09:00.239Z,15.53
2018-09-11T20:14:29.527Z,10.20
2018-09-11T20:19:58.854Z,14.83
2018-09-11T20:25:28.297Z,20.13
2018-09-11T20:30:57.711Z,14.10
2018-09-11T20:36:27.592Z,13.60
2018-09-11T20:41:57.831Z,12.03
2018-09-11T20:47:27.136Z,9.10
2018-09-11T20:52:57.383Z,10.43
2018-09-11T20:58:26.704Z,10.60
2018-09-11T21:03:55.972Z,8.03
2018-09-11T21:09:25.179Z,12.10
2018-09-11T21:14:54.449Z,11.57
2018-09-11T21:20:23.735Z,8.97
2018-09-11T21:25:53.003Z,12.00
2018-09-11T21:31:22.544Z,12.53
2018-09-11T21:36:52.028Z,11.00
2018-09-11T21:42:21.267Z,11.60
2018-09-11T21:47:50.492Z,17.30
2018-09-11T21:53:19.786Z,10.50
2018-09-11T21:58:49.029Z,12.13
2018-09-11T22:04:18.199Z,10.50
2018-09-11T22:09:47.488Z,9.80
2018-09-11T22:15:16.848Z,11.33
2018-09-11T22:20:46.103Z,11.97
2018-09-11T22:26:15.345Z,12.90
2018-09-11T22:31:45.655Z,14.43
2018-09-11T22:37:14.949Z,14.37
2018-09-11T22:42:44.207Z,12.70
2018-09-11T22:48:13.499Z,15.30
2018-09-11T22:53:42.859Z,11.87
2018-09-11T22:59:12.181Z,16.83
2018-09-11T23:04:42.467Z,13.70
2018-09-11T23:10:11.830Z,13.00
2018-09-11T23:15:41.168Z,10.83
2018-09-11T23:21:10.488Z,11.60
2018-09-11T23:26:39.880Z,11.27
2018-09-11T23:32:09.203Z,9.47
2018-09-11T23:37:38.525Z,10.53
2018-09-11T23:43:07.953Z,10.03
2018-09-11T23:48:37.422Z,11.77
2018-09-11T23:54:06.741Z,9.67
2018-09-11T23:59:35.990Z,7.20
